Time;durP1;ratioP1;P1;durP2;ratioP2;P2;SDS_P1;SDS_P2;PMS_P1;PMS_P2;Temp;Humidity;BMP_temperature;BMP_pressure;BME280_temperature;BME280_humidity;BME280_pressure;Samples;Min_cycle;Max_cycle;Signal;HPM_P1;HPM_P2
2023/09/23 14:01:28;;;;;;;26.00;12.80;;;;;;;22.80;68.68;98664.70;102123;1291;636794;-77
2023/09/23 14:03:56;;;;;;;26.60;12.20;;;;;;;22.72;68.82;98668.73;104834;1262;94323;-77
2023/09/23 14:06:24;;;;;;;25.80;12.30;;;;;;;22.67;68.78;98669.63;105254;1259;94701;-77
2023/09/23 14:08:52;;;;;;;24.70;12.60;;;;;;;22.61;68.95;98670.59;104989;1260;107162;-76
2023/09/23 14:11:20;;;;;;;22.60;12.40;;;;;;;22.54;68.86;98669.80;105206;1260;94408;-77
2023/09/23 14:13:48;;;;;;;24.50;13.20;;;;;;;22.50;69.01;98672.73;105363;1260;107633;-77
2023/09/23 14:16:16;;;;;;;26.50;14.30;;;;;;;22.43;69.19;98665.80;105420;1265;144496;-77
2023/09/23 14:18:44;;;;;;;25.40;14.00;;;;;;;22.37;69.26;98666.58;105470;1257;94856;-77
2023/09/23 14:21:12;;;;;;;23.50;13.70;;;;;;;22.32;69.22;98672.02;105332;1267;106708;-77
2023/09/23 14:23:40;;;;;;;26.30;14.30;;;;;;;22.30;69.21;98665.08;105618;1256;95541;-76
2023/09/23 14:26:08;;;;;;;23.90;14.10;;;;;;;22.28;69.32;98671.98;105282;1251;107719;-77
2023/09/23 14:28:36;;;;;;;27.90;15.20;;;;;;;22.27;69.54;98678.19;105291;1256;95333;-77
2023/09/23 14:31:04;;;;;;;26.70;15.40;;;;;;;22.24;69.39;98686.28;105109;1257;96470;-77
2023/09/23 14:33:32;;;;;;;26.70;15.80;;;;;;;22.19;69.62;98684.25;105301;1265;108812;-77
2023/09/23 14:36:00;;;;;;;28.00;15.10;;;;;;;22.12;69.55;98693.52;105434;1265;95627;-77
2023/09/23 14:38:28;;;;;;;24.10;14.40;;;;;;;22.08;69.52;98691.95;105346;1251;107508;-77
2023/09/23 14:40:56;;;;;;;24.90;14.30;;;;;;;22.03;69.47;98687.23;105618;1268;95292;-77
2023/09/23 14:43:24;;;;;;;23.60;14.10;;;;;;;21.99;69.60;98687.84;105609;1254;95436;-76
2023/09/23 14:45:52;;;;;;;24.10;14.10;;;;;;;21.95;69.68;98686.35;108661;1251;110305;-78
2023/09/23 14:48:20;;;;;;;24.10;13.90;;;;;;;21.92;69.94;98685.95;108746;1251;96159;-77
2023/09/23 14:50:49;;;;;;;26.90;14.40;;;;;;;21.90;69.69;98687.38;108707;1251;107398;-75
2023/09/23 14:53:16;;;;;;;26.60;15.20;;;;;;;21.86;69.87;98691.93;106094;1253;95257;-78
2023/09/23 14:55:44;;;;;;;27.20;14.70;;;;;;;21.84;69.90;98698.83;105275;1258;95183;-77
2023/09/23 14:58:12;;;;;;;24.10;14.00;;;;;;;21.83;69.91;98709.30;105350;1257;108028;-79
2023/09/23 15:00:40;;;;;;;24.30;14.50;;;;;;;21.79;70.07;98719.36;105522;1255;96252;-79
2023/09/23 15:03:08;;;;;;;23.30;14.60;;;;;;;21.74;69.90;98721.85;105229;1264;107618;-76
2023/09/23 15:05:37;;;;;;;26.30;15.10;;;;;;;21.68;69.92;98722.50;105393;1256;95266;-77
2023/09/23 15:08:05;;;;;;;22.80;14.10;;;;;;;21.62;70.15;98725.38;105452;1251;96184;-79
2023/09/23 15:10:33;;;;;;;24.80;14.70;;;;;;;21.58;70.33;98729.14;105525;1257;108641;-78
2023/09/23 15:13:01;;;;;;;24.30;15.30;;;;;;;21.53;70.05;98734.58;105488;1254;95208;-77
2023/09/23 15:15:29;;;;;;;27.40;15.30;;;;;;;21.47;70.05;98747.33;105453;1257;108294;-76
2023/09/23 15:17:57;;;;;;;24.90;15.00;;;;;;;21.39;70.17;98749.48;105111;1256;95257;-77
2023/09/23 15:20:25;;;;;;;27.40;16.60;;;;;;;21.32;70.40;98754.16;105431;1257;95276;-78
2023/09/23 15:22:53;;;;;;;28.80;17.00;;;;;;;21.25;70.38;98757.34;105355;1254;109950;-83
2023/09/23 15:25:21;;;;;;;27.30;17.40;;;;;;;21.20;70.42;98759.27;105298;1266;96174;-77
2023/09/23 15:27:48;;;;;;;30.40;18.10;;;;;;;21.14;70.29;98768.79;105419;1261;107798;-75
2023/09/23 15:30:16;;;;;;;30.80;17.90;;;;;;;21.08;70.35;98774.39;105397;1258;95355;-77
2023/09/23 15:32:46;;;;;;;32.10;20.40;;;;;;;21.03;70.62;98783.30;105419;1254;95250;-77
2023/09/23 15:35:16;;;;;;;30.00;18.40;;;;;;;20.96;70.57;98790.54;105371;1257;109223;-77
2023/09/23 15:37:44;;;;;;;31.10;17.70;;;;;;;20.90;70.70;98795.69;105289;1257;95579;-78
2023/09/23 15:40:16;;;;;;;30.30;18.10;;;;;;;20.83;70.71;98809.45;105459;1267;107675;-77
2023/09/23 15:42:44;;;;;;;35.90;19.40;;;;;;;20.75;70.88;98818.73;105320;1253;95228;-76
2023/09/23 15:45:13;;;;;;;28.30;17.30;;;;;;;20.65;70.80;98811.05;105376;1254;95287;-77
2023/09/23 15:47:41;;;;;;;28.30;16.90;;;;;;;20.57;70.78;98827.08;105322;1256;108546;-76
2023/09/23 15:50:10;;;;;;;29.90;16.20;;;;;;;20.51;70.94;98831.80;105485;1257;95921;-75
2023/09/23 15:52:38;;;;;;;26.70;16.40;;;;;;;20.43;70.88;98839.91;105466;1257;107009;-78
2023/09/23 15:55:06;;;;;;;25.90;16.90;;;;;;;20.32;70.85;98847.10;105202;1258;95329;-80
2023/09/23 15:57:35;;;;;;;27.00;16.20;;;;;;;20.23;70.95;98852.33;105247;1254;95204;-78
2023/09/23 16:00:05;;;;;;;26.50;15.10;;;;;;;20.16;71.04;98854.37;105157;1256;110201;-77
2023/09/23 16:02:33;;;;;;;25.80;15.40;;;;;;;20.07;71.04;98857.19;105304;1254;95300;-76
2023/09/23 16:05:01;;;;;;;25.90;13.50;;;;;;;20.01;71.10;98865.59;105346;1256;108241;-76
2023/09/23 16:07:29;;;;;;;22.40;13.30;;;;;;;19.93;71.02;98878.95;105251;1258;95249;-76
2023/09/23 16:09:58;;;;;;;21.00;11.60;;;;;;;19.86;71.06;98891.23;105203;1257;95267;-76
2023/09/23 16:12:25;;;;;;;22.40;11.00;;;;;;;19.79;71.07;98900.26;105352;1257;108780;-77
2023/09/23 16:14:53;;;;;;;20.10;10.20;;;;;;;19.74;71.24;98894.30;105426;1256;96589;-77
2023/09/23 16:17:21;;;;;;;17.60;9.30;;;;;;;19.67;71.24;98908.34;105385;1257;107603;-77
2023/09/23 16:19:50;;;;;;;19.60;8.80;;;;;;;19.61;71.04;98918.54;105411;1256;95364;-75
2023/09/23 16:22:19;;;;;;;17.00;7.60;;;;;;;19.52;71.39;98919.65;105398;1257;95355;-77
2023/09/23 16:24:47;;;;;;;13.90;7.40;;;;;;;19.42;71.40;98926.39;105487;1256;108656;-77
2023/09/23 16:27:16;;;;;;;12.90;6.20;;;;;;;19.34;71.29;98943.44;105412;1258;95361;-77
2023/09/23 16:29:44;;;;;;;14.30;6.10;;;;;;;19.29;71.34;98955.17;105600;1254;108108;-76
2023/09/23 16:32:13;;;;;;;12.40;5.40;;;;;;;19.23;71.43;98951.84;105550;1255;96551;-78
2023/09/23 16:34:42;;;;;;;10.00;4.40;;;;;;;19.14;71.40;98948.01;105440;1252;95180;-78
2023/09/23 16:37:10;;;;;;;9.60;3.70;;;;;;;19.06;71.37;98954.25;105492;1254;108460;-77
2023/09/23 16:39:38;;;;;;;5.40;3.10;;;;;;;18.99;71.49;98966.55;105647;1254;95163;-77
2023/09/23 16:42:06;;;;;;;6.60;3.20;;;;;;;18.89;71.48;98974.91;105506;1253;108405;-77
2023/09/23 16:59:06;;;;;;;4.90;3.10;;;;;;;18.52;72.21;98987.05;106664;1273;106768;-93
2023/09/23 17:02:09;;;;;;;7.50;3.50;;;;;;;18.45;72.09;98996.39;107013;1263;94374;-93
2023/09/23 17:08:31;;;;;;;5.10;2.80;;;;;;;18.34;72.18;99010.23;106447;1276;108619;-92
2023/09/23 17:11:52;;;;;;;4.00;2.60;;;;;;;18.31;72.11;99013.83;106811;1273;95652;-93
2023/09/23 17:18:30;;;;;;;4.80;2.80;;;;;;;18.24;72.49;99025.16;107632;1264;94878;-92
2023/09/23 17:21:48;;;;;;;5.40;3.00;;;;;;;18.16;72.67;99026.38;106767;1273;95035;-94
2023/09/23 17:28:59;;;;;;;7.60;2.90;;;;;;;18.08;72.41;99042.12;106838;1273;96119;-94
2023/09/23 17:32:12;;;;;;;6.60;3.30;;;;;;;18.07;72.45;99051.86;106625;1276;107592;-92
2023/09/23 17:38:59;;;;;;;7.00;3.60;;;;;;;18.02;72.64;99068.17;106524;1277;95142;-93
2023/09/23 17:42:01;;;;;;;4.20;3.10;;;;;;;17.96;72.58;99076.06;107231;1270;108164;-95
2023/09/23 17:45:04;;;;;;;6.70;3.40;;;;;;;17.95;72.77;99071.35;106893;1274;96848;-94
2023/09/23 17:48:05;;;;;;;5.90;3.60;;;;;;;17.95;72.65;99077.78;107412;1269;107124;-91
2023/09/23 17:51:49;;;;;;;;;;;;;;;;;;;;;
2023/09/23 17:58:03;;;;;;;5.20;3.10;;;;;;;17.91;72.74;99104.40;107389;1270;109107;-93
2023/09/23 18:03:50;;;;;;;6.00;3.60;;;;;;;17.89;72.79;99106.83;107386;1267;106151;-92
2023/09/23 18:10:08;;;;;;;7.70;3.60;;;;;;;17.84;72.93;99119.97;107326;1271;94620;-93
2023/09/23 18:13:51;;;;;;;8.10;3.50;;;;;;;17.83;73.12;99122.41;106918;1269;108887;-91
2023/09/23 18:17:34;;;;;;;4.90;3.40;;;;;;;17.74;73.27;99124.63;106684;1273;95558;-92
2023/09/23 18:20:52;;;;;;;6.50;3.40;;;;;;;17.71;73.17;99130.44;106850;1273;106492;-91
2023/09/23 18:24:14;;;;;;;9.10;4.60;;;;;;;17.70;73.22;99136.48;106619;1275;95035;-91
2023/09/23 18:30:13;;;;;;;6.30;3.30;;;;;;;17.71;73.02;99139.41;107120;1273;108757;-92
2023/09/23 18:33:52;;;;;;;7.80;3.80;;;;;;;17.71;73.24;99142.51;107766;1264;95173;31
2023/09/23 18:44:05;;;;;;;5.30;3.00;;;;;;;17.74;73.17;99154.04;107454;1269;95189;-93
2023/09/23 18:54:47;;;;;;;6.20;3.30;;;;;;;17.73;73.40;99175.30;101130;1272;106442;-92
2023/09/23 18:58:28;;;;;;;5.80;3.30;;;;;;;17.70;73.39;99176.31;107653;1267;94767;31
2023/09/23 19:05:26;;;;;;;8.10;3.30;;;;;;;17.71;73.62;99179.56;106477;1279;111870;-92
2023/09/23 19:12:21;;;;;;;7.70;3.30;;;;;;;17.70;73.47;99189.00;107315;1269;107046;-92
2023/09/23 19:18:25;;;;;;;5.30;2.70;;;;;;;17.64;73.75;99183.77;106780;1273;95978;-91
2023/09/23 19:22:47;;;;;;;5.20;2.30;;;;;;;17.57;73.56;99191.90;107621;1267;110285;31
2023/09/23 19:29:44;;;;;;;7.20;2.40;;;;;;;17.59;73.76;99199.48;107617;1267;106164;31
2023/09/23 19:35:56;;;;;;;5.40;2.70;;;;;;;17.53;73.73;99201.60;107132;1272;95223;-92
2023/09/23 19:39:41;;;;;;;;;;;;;;;;;;;;;
2023/09/23 19:43:02;;;;;;;5.20;2.80;;;;;;;17.42;73.80;99184.97;107555;1265;96354;31
2023/09/23 19:46:10;;;;;;;7.50;3.30;;;;;;;17.43;73.74;99167.70;107209;1275;107735;-92
2023/09/23 19:49:28;;;;;;;4.80;2.70;;;;;;;17.40;73.85;99176.02;107304;1276;94291;-92
2023/09/23 19:53:03;;;;;;;5.00;3.20;;;;;;;17.33;73.95;99184.42;107504;1275;94356;-92
2023/09/23 19:56:05;;;;;;;4.60;3.10;;;;;;;17.31;73.88;99194.67;97182;1272;109714;-91
2023/09/23 19:59:26;;;;;;;6.80;3.50;;;;;;;17.30;74.21;99204.14;107355;1275;95406;-91
2023/09/23 20:09:02;;;;;;;6.10;3.20;;;;;;;17.18;74.03;99211.19;107488;1275;94262;-92
2023/09/23 20:13:01;;;;;;;6.40;3.50;;;;;;;17.20;74.03;99208.66;107758;1262;638018;-91
2023/09/23 20:16:32;;;;;;;8.30;3.60;;;;;;;17.16;74.00;99199.52;109043;1251;93649;-92
2023/09/23 20:19:43;;;;;;;5.10;2.60;;;;;;;17.10;74.00;99200.09;109311;1251;94352;-92
2023/09/23 20:22:44;;;;;;;6.60;2.80;;;;;;;17.05;74.00;99209.21;109585;1244;107103;-91
2023/09/23 20:26:02;;;;;;;6.50;2.80;;;;;;;16.98;74.22;99218.84;105068;1253;5081312;-92
2023/09/23 20:30:14;;;;;;;4.40;3.00;;;;;;;16.93;74.23;99231.66;109562;1244;107058;-94
2023/09/23 20:33:13;;;;;;;5.90;2.90;;;;;;;16.87;73.93;99239.79;110149;1239;94305;-92
2023/09/23 20:36:35;;;;;;;5.20;2.80;;;;;;;16.85;74.09;99250.36;110425;1238;94134;-91
2023/09/23 20:39:33;;;;;;;5.10;2.60;;;;;;;16.82;74.20;99252.95;109993;1239;108064;-91
2023/09/23 20:42:43;;;;;;;5.80;2.80;;;;;;;16.81;74.17;99265.70;110141;1239;95400;-90
2023/09/23 20:48:41;;;;;;;4.70;2.30;;;;;;;16.79;74.20;99277.58;110265;1241;95195;-91
2023/09/23 20:51:42;;;;;;;4.90;2.60;;;;;;;16.76;73.96;99278.19;110046;1238;95240;-91
2023/09/23 20:54:37;;;;;;;4.30;2.20;;;;;;;16.74;73.87;99279.52;110244;1235;108388;-93
2023/09/23 21:01:26;;;;;;;4.90;2.40;;;;;;;16.72;73.91;99275.98;110282;1235;108955;-94
2023/09/23 21:04:28;;;;;;;7.10;2.60;;;;;;;16.70;73.94;99284.18;110198;1240;95235;-91
2023/09/23 21:07:46;;;;;;;3.20;2.00;;;;;;;16.68;74.02;99296.92;110297;1239;94391;-91
2023/09/23 21:11:18;;;;;;;2.70;1.90;;;;;;;16.64;74.14;99290.91;110421;1234;107126;-93
2023/09/23 21:14:16;;;;;;;4.00;2.40;;;;;;;16.64;74.20;99292.02;110507;1234;95263;-91
2023/09/23 21:17:13;;;;;;;5.20;2.60;;;;;;;16.63;74.32;99291.97;110565;1237;107628;-92
2023/09/23 21:20:32;;;;;;;5.80;2.70;;;;;;;16.57;74.22;99290.40;110577;1235;95164;-91
2023/09/23 21:23:38;;;;;;;2.70;2.30;;;;;;;16.55;74.33;99293.11;110560;1232;95187;-91
2023/09/23 21:26:39;;;;;;;6.60;2.90;;;;;;;16.47;74.16;99293.48;110441;1234;107363;-91
2023/09/23 21:29:36;;;;;;;4.00;2.80;;;;;;;16.44;74.28;99305.55;110555;1233;95107;-94
2023/09/23 21:32:48;;;;;;;4.10;2.70;;;;;;;16.45;74.39;99305.16;110727;1231;107027;-91
2023/09/23 21:35:35;;;;;;;5.40;2.80;;;;;;;16.45;74.16;99298.11;110444;1233;95224;-93
2023/09/23 21:38:54;;;;;;;5.70;3.00;;;;;;;16.41;74.26;99287.44;110445;1236;95169;-92
2023/09/23 21:41:54;;;;;;;6.30;3.20;;;;;;;16.35;74.24;99287.73;110503;1235;107898;-94
2023/09/23 21:45:05;;;;;;;8.80;3.40;;;;;;;16.36;74.35;99300.19;110447;1233;96527;-93
2023/09/23 21:48:27;;;;;;;8.50;3.70;;;;;;;16.34;74.32;99295.35;110476;1235;106240;-93
2023/09/23 21:51:25;;;;;;;14.30;4.70;;;;;;;16.33;74.37;99297.23;110577;1235;95160;-94
2023/09/23 21:54:24;;;;;;;7.90;3.90;;;;;;;16.33;74.53;99298.73;110410;1238;94984;-92
2023/09/23 21:57:43;;;;;;;6.70;3.80;;;;;;;16.30;74.47;99298.25;110574;1237;110070;-92
2023/09/23 22:00:44;;;;;;;6.80;3.90;;;;;;;16.30;74.74;99292.52;110564;1235;94972;-91
2023/09/23 22:03:42;;;;;;;7.80;4.30;;;;;;;16.27;74.68;99288.91;110431;1235;107395;-92
2023/09/23 22:09:52;;;;;;;7.00;4.00;;;;;;;16.19;74.49;99288.67;110552;1237;95053;-92
2023/09/23 22:13:31;;;;;;;8.40;4.10;;;;;;;16.18;74.60;99296.31;110264;1236;108630;-92
2023/09/23 22:17:28;;;;;;;9.30;4.00;;;;;;;16.17;74.68;99287.83;110202;1238;95345;-92
2023/09/23 22:23:47;;;;;;;11.40;4.60;;;;;;;16.16;74.65;99290.09;110437;1234;94491;-92
2023/09/23 22:27:04;;;;;;;8.30;4.50;;;;;;;16.17;74.82;99299.64;110586;1233;94987;-92
2023/09/23 22:30:05;;;;;;;10.50;4.60;;;;;;;16.20;74.90;99312.08;110418;1236;109195;-92
2023/09/23 22:33:08;;;;;;;10.40;4.90;;;;;;;16.20;74.74;99314.21;110808;1236;95026;-93
2023/09/23 22:37:00;;;;;;;9.40;4.80;;;;;;;16.19;74.81;99315.88;110018;1238;107745;-92
2023/09/23 22:40:03;;;;;;;10.10;5.30;;;;;;;16.18;74.75;99318.11;110467;1237;94089;-93
2023/09/23 22:43:12;;;;;;;;;;;;;;;;;;;;;
2023/09/23 22:46:27;;;;;;;13.60;5.60;;;;;;;16.19;75.01;99305.01;110788;1237;108326;-93
2023/09/23 22:49:25;;;;;;;11.10;5.80;;;;;;;16.21;74.97;99303.76;110724;1235;95090;-93
2023/09/23 22:52:25;;;;;;;10.30;5.30;;;;;;;16.21;74.91;99298.58;110685;1235;107237;-93
2023/09/23 22:55:24;;;;;;;13.30;5.50;;;;;;;16.19;74.95;99297.13;110448;1237;95249;-94
2023/09/23 22:58:28;;;;;;;12.60;6.00;;;;;;;16.18;74.92;99297.07;110681;1235;94319;-93
2023/09/23 23:05:15;;;;;;;14.10;6.00;;;;;;;16.17;75.12;99305.71;110065;1238;96686;-92
2023/09/23 23:10:57;;;;;;;13.50;6.30;;;;;;;16.15;74.98;99303.20;110761;1232;95244;-92
2023/09/23 23:14:14;;;;;;;12.10;6.00;;;;;;;16.13;75.15;99300.40;110548;1232;94323;-92
2023/09/23 23:17:17;;;;;;;12.50;6.20;;;;;;;16.11;74.97;99304.64;110823;1234;108175;-93
2023/09/23 23:20:46;;;;;;;;;;;;;;;;;;;;;
2023/09/23 23:27:18;;;;;;;12.30;6.00;;;;;;;16.05;75.33;99325.95;110501;1232;94377;-92
2023/09/23 23:30:35;;;;;;;;;;;;;;;;;;;;;
2023/09/23 23:33:30;;;;;;;15.70;6.50;;;;;;;16.09;75.31;99350.86;110291;1234;109975;-93
2023/09/23 23:39:37;;;;;;;12.10;6.10;;;;;;;16.12;75.41;99363.05;110455;1237;107733;-92
2023/09/23 23:43:17;;;;;;;14.80;6.50;;;;;;;16.18;75.23;99371.84;105348;1286;651117;-93
2023/09/23 23:46:36;;;;;;;12.80;6.40;;;;;;;16.16;75.31;99382.91;105984;1277;94248;-94
2023/09/23 23:49:52;;;;;;;12.90;6.70;;;;;;;16.18;75.27;99393.30;106201;1278;94778;-93
2023/09/23 23:52:49;;;;;;;15.10;7.00;;;;;;;16.17;75.45;99400.31;106917;1272;105685;-92
2023/09/23 23:56:09;;;;;;;14.80;7.10;;;;;;;16.18;75.34;99408.31;103255;1267;5079022;-93
2023/09/23 23:59:47;;;;;;;14.50;6.80;;;;;;;16.17;75.45;99411.78;107266;1268;107775;-93
